createdAt,value
2023-03-21T00:00:41.130Z,100955.47
2023-03-21T00:03:08.973Z,100958.06
2023-03-21T00:05:40.328Z,100950.25
2023-03-21T00:08:07.196Z,100948.50
2023-03-21T00:10:42.138Z,100943.28
2023-03-21T00:13:15.209Z,100945.88
2023-03-21T00:16:05.333Z,100938.06
2023-03-21T00:18:46.529Z,100936.34
2023-03-21T00:21:44.023Z,100930.25
2023-03-21T00:24:02.237Z,100931.13
2023-03-21T00:26:28.848Z,100926.75
2023-03-21T00:28:55.473Z,100928.50
2023-03-21T00:31:22.130Z,100933.72
2023-03-21T00:33:48.607Z,100925.91
2023-03-21T00:36:16.020Z,100926.75
2023-03-21T00:38:42.912Z,100918.94
2023-03-21T00:41:23.224Z,100919.81
2023-03-21T00:43:55.503Z,100917.22
2023-03-21T00:46:25.223Z,100914.59
2023-03-21T00:48:52.022Z,100917.19
2023-03-21T00:51:26.364Z,100913.72
2023-03-21T00:53:58.047Z,100912.84
2023-03-21T00:56:24.635Z,100906.75
2023-03-21T00:58:51.238Z,100902.41
2023-03-21T01:01:18.302Z,100899.78
2023-03-21T01:03:51.003Z,100904.13
2023-03-21T01:06:19.552Z,100899.81
2023-03-21T01:08:52.533Z,100896.31
2023-03-21T01:11:25.294Z,100893.69
2023-03-21T01:13:59.605Z,100898.91
2023-03-21T01:16:31.744Z,100893.69
2023-03-21T01:18:59.585Z,100895.44
2023-03-21T01:21:26.406Z,100894.56
2023-03-21T01:23:52.898Z,100892.88
2023-03-21T01:26:19.423Z,100885.91
2023-03-21T01:28:46.232Z,100878.09
2023-03-21T01:31:15.395Z,100887.66
2023-03-21T01:33:42.361Z,100885.94
2023-03-21T01:36:14.514Z,100872.88
2023-03-21T01:38:42.604Z,100881.59
2023-03-21T01:41:33.529Z,100877.22
2023-03-21T01:44:07.596Z,100877.19
2023-03-21T01:46:49.331Z,100875.44
2023-03-21T01:49:35.101Z,100867.56
2023-03-21T01:52:13.997Z,100866.72
2023-03-21T01:54:43.169Z,100869.31
2023-03-21T01:57:14.479Z,100862.38
2023-03-21T01:59:44.108Z,100859.72
2023-03-21T02:02:17.944Z,100853.66
2023-03-21T02:04:55.853Z,100857.16
2023-03-21T02:07:28.834Z,100854.50
2023-03-21T02:09:56.392Z,100857.94
2023-03-21T02:12:23.257Z,100858.75
2023-03-21T02:14:51.783Z,100854.38
2023-03-21T02:17:36.624Z,100852.59
2023-03-21T02:20:22.000Z,100845.66
2023-03-21T02:23:23.872Z,100845.59
2023-03-21T02:26:11.394Z,100842.06
2023-03-21T02:29:03.733Z,100837.78
2023-03-21T02:32:17.914Z,100833.44
2023-03-21T02:35:09.585Z,100824.78
2023-03-21T02:37:46.807Z,100804.78
2023-03-21T02:40:25.566Z,100805.63
2023-03-21T02:43:01.461Z,100799.53
2023-03-21T02:45:47.830Z,100805.69
2023-03-21T02:48:29.385Z,100808.28
2023-03-21T02:51:00.650Z,100794.38
2023-03-21T02:53:33.760Z,100797.88
2023-03-21T02:56:02.189Z,100799.63
2023-03-21T02:58:31.974Z,100795.28
2023-03-21T03:00:58.505Z,100795.28
2023-03-21T03:03:33.871Z,100783.97
2023-03-21T03:06:03.308Z,100792.69
2023-03-21T03:08:41.372Z,100797.91
2023-03-21T03:11:28.746Z,100795.28
2023-03-21T03:14:21.161Z,100792.69
2023-03-21T03:17:17.249Z,100794.44
2023-03-21T03:19:55.149Z,100790.94
2023-03-21T03:22:31.904Z,100792.69
2023-03-21T03:25:19.533Z,100795.34
2023-03-21T03:27:52.888Z,100785.81
2023-03-21T03:30:19.696Z,100779.72
2023-03-21T03:32:56.515Z,100780.63
2023-03-21T03:35:24.531Z,100771.97
2023-03-21T03:37:56.561Z,100770.25
2023-03-21T03:40:36.265Z,100774.63
2023-03-21T03:43:11.331Z,100773.75
2023-03-21T03:45:47.429Z,100768.56
2023-03-21T03:48:17.489Z,100767.72
2023-03-21T03:51:03.391Z,100772.09
2023-03-21T03:53:35.141Z,100766.88
2023-03-21T03:56:02.691Z,100765.16
2023-03-21T03:58:42.919Z,100762.56
2023-03-21T04:01:11.861Z,100756.47
2023-03-21T04:03:48.910Z,100752.16
2023-03-21T04:06:17.809Z,100754.78
2023-03-21T04:08:44.588Z,100747.81
2023-03-21T04:11:14.281Z,100746.94
2023-03-21T04:13:41.421Z,100747.81
2023-03-21T04:16:09.078Z,100740.84
2023-03-21T04:18:35.872Z,100737.34
2023-03-21T04:21:03.588Z,100743.38
2023-03-21T04:23:30.035Z,100742.50
2023-03-21T04:25:57.387Z,100742.50
2023-03-21T04:28:24.092Z,100746.84
2023-03-21T04:31:01.210Z,100748.59
2023-03-21T04:33:31.494Z,100732.94
2023-03-21T04:35:59.222Z,100745.97
2023-03-21T04:38:30.700Z,100739.00
2023-03-21T04:40:58.021Z,100746.81
2023-03-21T04:43:24.673Z,100743.31
2023-03-21T04:45:52.096Z,100745.03
2023-03-21T04:48:19.656Z,100751.97
2023-03-21T04:50:46.894Z,100749.38
2023-03-21T04:53:13.326Z,100755.47
2023-03-21T04:55:39.873Z,100747.63
2023-03-21T04:58:06.400Z,100743.28
2023-03-21T05:00:37.394Z,100739.81
2023-03-21T05:03:09.217Z,100731.94
2023-03-21T05:05:37.573Z,100727.59
2023-03-21T05:08:05.594Z,100728.50
2023-03-21T05:10:32.495Z,100731.09
2023-03-21T05:12:58.970Z,100726.72
2023-03-21T05:15:25.447Z,100733.69
2023-03-21T05:17:51.937Z,100725.81
2023-03-21T05:20:19.021Z,100735.41
2023-03-21T05:22:46.198Z,100738.91
2023-03-21T05:25:13.435Z,100733.66
2023-03-21T05:27:45.104Z,100737.97
2023-03-21T05:30:16.449Z,100741.41
2023-03-21T05:32:42.993Z,100737.06
2023-03-21T05:35:10.603Z,100740.56
2023-03-21T05:37:38.437Z,100739.72
2023-03-21T05:40:07.117Z,100732.75
2023-03-21T05:42:33.767Z,100731.84
2023-03-21T05:45:00.661Z,100735.31
2023-03-21T05:47:27.180Z,100730.09
2023-03-21T05:49:53.740Z,100733.59
2023-03-21T05:52:20.457Z,100737.06
2023-03-21T05:54:46.935Z,100731.03
2023-03-21T05:57:13.580Z,100733.66
2023-03-21T05:59:39.982Z,100736.25
2023-03-21T06:02:06.445Z,100735.41
2023-03-21T06:04:33.008Z,100730.19
2023-03-21T06:06:59.564Z,100731.06
2023-03-21T06:09:26.501Z,100738.03
2023-03-21T06:11:55.438Z,100729.34
2023-03-21T06:14:22.828Z,100735.41
2023-03-21T06:16:49.382Z,100730.19
2023-03-21T06:19:16.249Z,100729.34
2023-03-21T06:21:42.814Z,100724.97
2023-03-21T06:24:10.266Z,100719.75
2023-03-21T06:26:36.975Z,100725.84
2023-03-21T06:29:03.936Z,100723.22
2023-03-21T06:31:30.961Z,100724.97
2023-03-21T06:33:57.426Z,100722.34
2023-03-21T06:36:23.975Z,100725.81
2023-03-21T06:38:50.519Z,100724.94
2023-03-21T06:41:17.124Z,100725.78
2023-03-21T06:43:44.326Z,100724.03
2023-03-21T06:46:11.402Z,100720.53
2023-03-21T06:48:39.237Z,100726.59
2023-03-21T06:51:06.020Z,100726.59
2023-03-21T06:53:35.104Z,100729.22
2023-03-21T06:56:02.532Z,100724.81
2023-03-21T06:58:28.998Z,100729.19
2023-03-21T07:00:58.887Z,100734.34
2023-03-21T07:03:25.766Z,100729.13
2023-03-21T07:05:52.232Z,100744.78
2023-03-21T07:08:19.539Z,100742.13
2023-03-21T07:10:46.951Z,100734.25
2023-03-21T07:13:14.130Z,100740.34
2023-03-21T07:15:41.334Z,100742.06
2023-03-21T07:18:09.665Z,100744.69
2023-03-21T07:20:38.088Z,100749.88
2023-03-21T07:23:05.255Z,100756.81
2023-03-21T07:25:31.968Z,100753.31
2023-03-21T07:27:58.506Z,100757.63
2023-03-21T07:30:25.226Z,100754.16
2023-03-21T07:32:53.365Z,100752.41
2023-03-21T07:35:19.898Z,100752.38
2023-03-21T07:37:46.637Z,100742.81
2023-03-21T07:40:13.289Z,100732.31
2023-03-21T07:42:41.184Z,100718.34
2023-03-21T07:45:09.732Z,100726.19
2023-03-21T07:47:36.619Z,100718.31
2023-03-21T07:50:04.612Z,100715.69
2023-03-21T07:52:33.265Z,100722.63
2023-03-21T07:55:00.024Z,100715.59
2023-03-21T07:57:26.485Z,100715.56
2023-03-21T07:59:52.994Z,100714.66
2023-03-21T08:02:19.759Z,100714.66
2023-03-21T08:04:46.725Z,100717.25
2023-03-21T08:07:13.566Z,100717.25
2023-03-21T08:09:40.037Z,100720.72
2023-03-21T08:12:08.436Z,100725.09
2023-03-21T08:14:36.696Z,100727.69
2023-03-21T08:17:05.257Z,100732.03
2023-03-21T08:19:32.332Z,100732.03
2023-03-21T08:22:02.332Z,100726.81
2023-03-21T08:24:29.028Z,100725.94
2023-03-21T08:26:55.726Z,100724.16
2023-03-21T08:29:23.048Z,100716.34
2023-03-21T08:31:49.524Z,100719.81
2023-03-21T08:34:17.937Z,100721.50
2023-03-21T08:36:44.460Z,100719.75
2023-03-21T08:39:11.074Z,100727.63
2023-03-21T08:41:37.903Z,100725.91
2023-03-21T08:44:05.788Z,100720.63
2023-03-21T08:46:33.021Z,100728.44
2023-03-21T08:48:59.631Z,100732.78
2023-03-21T08:51:26.143Z,100718.84
2023-03-21T08:53:52.638Z,100720.56
2023-03-21T08:56:19.136Z,100720.56
2023-03-21T08:58:45.639Z,100713.59
2023-03-21T09:01:15.713Z,100710.94
2023-03-21T09:03:43.502Z,100704.81
2023-03-21T09:06:14.131Z,100704.75
2023-03-21T09:08:42.064Z,100701.22
2023-03-21T09:11:09.940Z,100697.72
2023-03-21T09:13:36.937Z,100698.50
2023-03-21T09:16:05.182Z,100700.13
2023-03-21T09:18:55.535Z,100701.75
2023-03-21T09:21:23.665Z,100704.31
2023-03-21T09:23:52.897Z,100700.78
2023-03-21T09:26:19.958Z,100698.19
2023-03-21T09:28:47.349Z,100704.28
2023-03-21T09:31:16.353Z,100705.97
2023-03-21T09:33:43.856Z,100701.69
2023-03-21T09:36:16.953Z,100699.91
2023-03-21T09:38:45.667Z,100702.53
2023-03-21T09:41:33.786Z,100704.16
2023-03-21T09:44:15.578Z,100707.59
2023-03-21T09:46:45.332Z,100707.63
2023-03-21T09:49:18.894Z,100707.63
2023-03-21T09:51:48.745Z,100705.88
2023-03-21T09:54:24.914Z,100703.28
2023-03-21T09:56:59.339Z,100703.22
2023-03-21T09:59:33.603Z,100698.06
2023-03-21T10:02:01.779Z,100700.66
2023-03-21T10:04:28.865Z,100699.81
2023-03-21T10:07:00.574Z,100697.16
2023-03-21T10:09:29.135Z,100692.75
2023-03-21T10:12:09.757Z,100695.22
2023-03-21T10:14:41.011Z,100689.84
2023-03-21T10:17:22.631Z,100694.03
2023-03-21T10:20:12.254Z,100691.28
2023-03-21T10:22:39.079Z,100693.00
2023-03-21T10:25:07.072Z,100686.97
2023-03-21T10:27:36.941Z,100697.41
2023-03-21T10:30:07.392Z,100686.91
2023-03-21T10:32:34.922Z,100679.84
2023-03-21T10:35:04.941Z,100682.44
2023-03-21T10:37:32.544Z,100671.88
2023-03-21T10:39:59.440Z,100660.44
2023-03-21T10:42:29.624Z,100648.19
2023-03-21T10:44:57.578Z,100643.88
2023-03-21T10:47:32.501Z,100645.53
2023-03-21T10:50:12.347Z,100641.06
2023-03-21T10:52:46.775Z,100634.94
2023-03-21T10:55:29.825Z,100636.75
2023-03-21T10:58:10.933Z,100632.34
2023-03-21T11:00:41.305Z,100635.81
2023-03-21T11:03:21.598Z,100622.81
2023-03-21T11:05:48.967Z,100623.63
2023-03-21T11:08:18.795Z,100619.16
2023-03-21T11:10:55.137Z,100617.25
2023-03-21T11:13:27.963Z,100624.97
2023-03-21T11:16:03.613Z,100617.13
2023-03-21T11:18:33.304Z,100629.38
2023-03-21T11:21:06.163Z,100635.47
2023-03-21T11:23:35.341Z,100625.81
2023-03-21T11:26:02.851Z,100623.09
2023-03-21T11:28:37.449Z,100626.53
2023-03-21T11:31:05.667Z,100626.50
2023-03-21T11:33:44.326Z,100621.09
2023-03-21T11:36:19.610Z,100624.66
2023-03-21T11:38:56.543Z,100631.56
2023-03-21T11:41:28.367Z,100626.28
2023-03-21T11:43:57.119Z,100623.59
2023-03-21T11:46:29.443Z,100621.09
2023-03-21T11:48:57.387Z,100635.09
2023-03-21T11:51:54.755Z,100628.22
2023-03-21T11:54:38.312Z,100624.81
2023-03-21T11:57:29.616Z,100630.97
2023-03-21T12:00:14.633Z,100615.25
2023-03-21T12:02:55.622Z,100608.28
2023-03-21T12:05:26.522Z,100609.16
2023-03-21T12:07:58.937Z,100603.00
2023-03-21T12:10:34.353Z,100597.72
2023-03-21T12:13:19.513Z,100609.97
2023-03-21T12:16:07.353Z,100606.47
2023-03-21T12:18:47.733Z,100615.25
2023-03-21T12:21:32.730Z,100614.41
2023-03-21T12:24:17.498Z,100617.13
2023-03-21T12:26:59.084Z,100614.53
2023-03-21T12:29:34.807Z,100602.34
2023-03-21T12:32:13.870Z,100604.19
2023-03-21T12:35:15.876Z,100598.13
2023-03-21T12:38:10.450Z,100595.50
2023-03-21T12:40:40.896Z,100602.38
2023-03-21T12:43:42.696Z,100592.78
2023-03-21T12:46:31.968Z,100588.44
2023-03-21T12:49:02.929Z,100574.25
2023-03-21T12:51:33.911Z,100575.03
2023-03-21T12:54:21.583Z,100562.84
2023-03-21T12:57:08.582Z,100558.41
2023-03-21T12:59:41.331Z,100547.00
2023-03-21T13:02:30.087Z,100558.34
2023-03-21T13:05:01.479Z,100554.03
2023-03-21T13:07:33.614Z,100547.81
2023-03-21T13:10:02.209Z,100548.72
2023-03-21T13:12:43.224Z,100557.41
2023-03-21T13:15:32.648Z,100542.47
2023-03-21T13:18:14.184Z,100538.91
2023-03-21T13:20:45.104Z,100540.72
2023-03-21T13:23:13.507Z,100531.13
2023-03-21T13:25:46.987Z,100526.97
2023-03-21T13:28:28.842Z,100529.56
2023-03-21T13:31:19.833Z,100511.03
2023-03-21T13:33:49.459Z,100508.25
2023-03-21T13:36:22.995Z,100513.28
2023-03-21T13:38:52.058Z,100523.72
2023-03-21T13:41:33.073Z,100522.59
2023-03-21T13:44:02.498Z,100521.31
2023-03-21T13:46:28.936Z,100520.31
2023-03-21T13:48:59.710Z,100507.91
2023-03-21T13:51:29.577Z,100501.72
2023-03-21T13:54:01.229Z,100503.38
2023-03-21T13:56:30.413Z,100497.13
2023-03-21T13:59:02.360Z,100492.78
2023-03-21T14:02:13.404Z,100501.66
2023-03-21T14:04:53.635Z,100497.25
2023-03-21T14:07:31.068Z,100493.88
2023-03-21T14:10:06.400Z,100501.66
2023-03-21T14:12:42.398Z,100494.84
2023-03-21T14:15:18.711Z,100485.97
2023-03-21T14:18:10.937Z,100485.97
2023-03-21T14:20:56.236Z,100495.56
2023-03-21T14:23:24.261Z,100491.16
2023-03-21T14:25:51.415Z,100486.66
2023-03-21T14:28:26.251Z,100476.06
2023-03-21T14:30:56.138Z,100476.81
2023-03-21T14:33:29.128Z,100487.22
2023-03-21T14:35:59.280Z,100469.75
2023-03-21T14:38:32.094Z,100479.38
2023-03-21T14:40:58.957Z,100489.06
2023-03-21T14:43:26.533Z,100494.28
2023-03-21T14:45:55.844Z,100495.09
2023-03-21T14:48:34.890Z,100485.44
2023-03-21T14:51:04.641Z,100485.53
2023-03-21T14:53:40.203Z,100490.03
2023-03-21T14:56:10.798Z,100484.63
2023-03-21T14:58:40.326Z,100475.78
2023-03-21T15:01:13.792Z,100486.19
2023-03-21T15:03:40.785Z,100473.03
2023-03-21T15:06:13.819Z,100467.72
2023-03-21T15:08:40.825Z,100467.59
2023-03-21T15:11:12.762Z,100467.34
2023-03-21T15:13:50.225Z,100459.03
2023-03-21T15:16:17.560Z,100466.63
2023-03-21T15:18:45.318Z,100467.25
2023-03-21T15:21:27.665Z,100461.00
2023-03-21T15:24:13.489Z,100458.53
2023-03-21T15:26:40.590Z,100449.56
2023-03-21T15:29:07.518Z,100450.25
2023-03-21T15:31:40.313Z,100454.50
2023-03-21T15:34:07.632Z,100449.28
2023-03-21T15:36:37.721Z,100452.94
2023-03-21T15:39:08.551Z,100453.84
2023-03-21T15:41:35.382Z,100451.25
2023-03-21T15:44:05.565Z,100449.50
2023-03-21T15:46:50.443Z,100439.63
2023-03-21T15:49:25.145Z,100430.53
2023-03-21T15:52:02.833Z,100440.81
2023-03-21T15:54:37.077Z,100435.56
2023-03-21T15:57:19.835Z,100445.47
2023-03-21T15:59:47.811Z,100441.56
2023-03-21T16:02:23.222Z,100443.50
2023-03-21T16:05:21.970Z,100448.09
2023-03-21T16:07:48.746Z,100451.56
2023-03-21T16:10:28.535Z,100436.72
2023-03-21T16:12:55.325Z,100437.69
2023-03-21T16:15:23.869Z,100439.50
2023-03-21T16:17:58.578Z,100438.72
2023-03-21T16:20:34.265Z,100433.47
2023-03-21T16:23:01.405Z,100430.03
2023-03-21T16:25:30.482Z,100429.13
2023-03-21T16:27:57.290Z,100419.31
2023-03-21T16:30:24.109Z,100424.31
2023-03-21T16:32:51.014Z,100421.53
2023-03-21T16:35:17.942Z,100418.16
2023-03-21T16:37:47.037Z,100419.38
2023-03-21T16:40:21.870Z,100418.69
2023-03-21T16:42:48.397Z,100410.06
2023-03-21T16:45:14.972Z,100402.31
2023-03-21T16:47:41.523Z,100411.16
2023-03-21T16:50:33.595Z,100404.19
2023-03-21T16:53:00.742Z,100405.97
2023-03-21T16:55:28.225Z,100409.50
2023-03-21T16:57:55.700Z,100409.44
2023-03-21T17:00:26.041Z,100407.72
2023-03-21T17:02:54.707Z,100423.59
2023-03-21T17:05:26.761Z,100425.44
2023-03-21T17:07:54.682Z,100425.53
2023-03-21T17:10:24.461Z,100429.06
2023-03-21T17:12:51.006Z,100430.88
2023-03-21T17:15:18.003Z,100426.59
2023-03-21T17:17:44.877Z,100434.47
2023-03-21T17:20:24.160Z,100426.66
2023-03-21T17:22:50.917Z,100429.28
2023-03-21T17:25:19.019Z,100431.09
2023-03-21T17:27:46.312Z,100437.19
2023-03-21T17:30:34.023Z,100441.53
2023-03-21T17:33:00.939Z,100444.22
2023-03-21T17:35:29.024Z,100447.75
2023-03-21T17:37:58.458Z,100452.13
2023-03-21T17:40:30.859Z,100439.13
2023-03-21T17:42:59.262Z,100439.06
2023-03-21T17:45:25.869Z,100432.16
2023-03-21T17:47:52.730Z,100431.31
2023-03-21T17:50:22.638Z,100434.75
2023-03-21T17:52:50.868Z,100439.22
2023-03-21T17:55:19.640Z,100440.19
2023-03-21T17:57:46.970Z,100440.25
2023-03-21T18:00:20.789Z,100437.66
2023-03-21T18:02:47.794Z,100431.59
2023-03-21T18:05:14.561Z,100428.91
2023-03-21T18:10:28.582Z,100423.66
2023-03-21T18:12:56.337Z,100430.72
2023-03-21T18:15:31.092Z,100418.47
2023-03-21T18:17:58.453Z,100419.44
2023-03-21T18:20:50.305Z,100430.78
2023-03-21T18:23:15.969Z,100436.06
2023-03-21T18:25:43.004Z,100428.28
2023-03-21T18:28:11.854Z,100420.44
2023-03-21T18:31:00.225Z,100419.69
2023-03-21T18:33:27.235Z,100417.94
2023-03-21T18:35:59.131Z,100425.84
2023-03-21T18:38:29.229Z,100420.72
2023-03-21T18:40:56.294Z,100420.72
2023-03-21T18:46:10.374Z,100428.63
2023-03-21T18:48:37.226Z,100427.66
2023-03-21T18:51:04.338Z,100430.25
2023-03-21T18:53:31.955Z,100428.56
2023-03-21T18:55:58.516Z,100429.47
2023-03-21T18:58:25.413Z,100423.38
2023-03-21T19:00:53.631Z,100428.66
2023-03-21T19:03:34.117Z,100433.00
2023-03-21T19:06:04.188Z,100432.06
2023-03-21T19:08:31.242Z,100437.31
2023-03-21T19:11:00.166Z,100437.31
2023-03-21T19:13:28.300Z,100437.41
2023-03-21T19:15:56.169Z,100429.53
2023-03-21T19:18:53.344Z,100429.53
2023-03-21T19:21:09.634Z,100429.53
2023-03-21T19:24:07.914Z,100419.06
2023-03-21T19:26:23.953Z,100415.63
2023-03-21T19:28:50.569Z,100417.38
2023-03-21T19:31:17.980Z,100419.16
2023-03-21T19:33:45.028Z,100411.34
2023-03-21T19:36:21.543Z,100415.72
2023-03-21T19:38:48.973Z,100396.56
2023-03-21T19:41:15.539Z,100411.44
2023-03-21T19:43:53.124Z,100409.66
2023-03-21T19:46:24.484Z,100404.44
2023-03-21T19:48:51.142Z,100403.56
2023-03-21T19:51:28.360Z,100404.44
2023-03-21T19:53:55.794Z,100399.28
2023-03-21T19:56:26.257Z,100413.19
2023-03-21T19:58:53.927Z,100419.28
2023-03-21T20:01:20.672Z,100417.53
2023-03-21T20:03:47.322Z,100421.06
2023-03-21T20:06:13.793Z,100421.97
2023-03-21T20:09:13.685Z,100420.31
2023-03-21T20:11:27.328Z,100420.34
2023-03-21T20:13:54.224Z,100419.53
2023-03-21T20:16:21.448Z,100419.56
2023-03-21T20:18:48.330Z,100414.31
2023-03-21T20:21:18.099Z,100405.59
2023-03-21T20:23:51.035Z,100409.13
2023-03-21T20:26:18.502Z,100398.72
2023-03-21T20:29:00.209Z,100408.34
2023-03-21T20:31:34.748Z,100396.25
2023-03-21T20:34:01.607Z,100398.13
2023-03-21T20:36:43.902Z,100398.22
2023-03-21T20:39:11.017Z,100409.66
2023-03-21T20:41:38.187Z,100406.22
2023-03-21T20:46:51.733Z,100407.19
2023-03-21T20:49:20.089Z,100396.78
2023-03-21T20:52:47.829Z,100395.97
2023-03-21T20:54:34.865Z,100394.22
2023-03-21T20:57:01.598Z,100389.94
2023-03-21T20:59:29.206Z,100393.56
2023-03-21T21:01:57.420Z,100393.63
2023-03-21T21:04:44.157Z,100385.84
2023-03-21T21:07:15.912Z,100392.94
2023-03-21T21:09:44.078Z,100394.75
2023-03-21T21:12:11.515Z,100394.75
2023-03-21T21:14:38.990Z,100390.41
2023-03-21T21:17:23.153Z,100386.94
2023-03-21T21:19:50.950Z,100386.88
2023-03-21T21:22:17.740Z,100394.78
2023-03-21T21:24:44.770Z,100390.41
2023-03-21T21:27:11.914Z,100390.41
2023-03-21T21:29:38.525Z,100398.28
2023-03-21T21:32:05.358Z,100391.31
2023-03-21T21:34:32.243Z,100401.03
2023-03-21T21:37:02.047Z,100394.94
2023-03-21T21:39:31.413Z,100399.41
2023-03-21T21:41:57.920Z,100400.34
2023-03-21T21:44:24.401Z,100389.97
2023-03-21T21:46:51.369Z,100390.88
2023-03-21T21:49:18.004Z,100390.09
2023-03-21T21:51:47.690Z,100387.53
2023-03-21T21:54:18.137Z,100386.72
2023-03-21T21:56:48.380Z,100400.63
2023-03-21T21:59:18.287Z,100399.75
2023-03-21T22:01:46.610Z,100392.78
2023-03-21T22:04:14.513Z,100400.56
2023-03-21T22:06:42.258Z,100396.16
2023-03-21T22:09:09.219Z,100389.97
2023-03-21T22:11:36.131Z,100395.16
2023-03-21T22:14:03.148Z,100393.34
2023-03-21T22:16:29.836Z,100387.25
2023-03-21T22:18:56.400Z,100389.88
2023-03-21T22:21:23.150Z,100385.50
2023-03-21T22:23:49.600Z,100386.34
2023-03-21T22:26:16.299Z,100385.50
2023-03-21T22:28:43.516Z,100389.88
2023-03-21T22:31:13.482Z,100385.53
2023-03-21T22:33:40.050Z,100386.41
2023-03-21T22:36:07.008Z,100382.06
2023-03-21T22:38:34.643Z,100383.78
2023-03-21T22:41:04.958Z,100379.41
2023-03-21T22:43:35.246Z,100384.59
2023-03-21T22:46:03.122Z,100381.94
2023-03-21T22:48:30.847Z,100379.25
2023-03-21T22:50:59.017Z,100377.56
2023-03-21T22:53:25.757Z,100381.97
2023-03-21T22:55:52.299Z,100375.03
2023-03-21T22:58:19.166Z,100377.66
2023-03-21T23:00:45.925Z,100375.06
2023-03-21T23:03:14.525Z,100368.97
2023-03-21T23:05:41.704Z,100376.88
2023-03-21T23:08:08.581Z,100369.94
2023-03-21T23:10:38.368Z,100369.03
2023-03-21T23:13:05.084Z,100364.69
2023-03-21T23:15:31.610Z,100364.69
2023-03-21T23:17:58.109Z,100361.25
2023-03-21T23:20:24.732Z,100361.25
2023-03-21T23:22:51.225Z,100363.88
2023-03-21T23:25:20.457Z,100363.84
2023-03-21T23:27:47.269Z,100356.84
2023-03-21T23:30:13.836Z,100361.16
2023-03-21T23:32:40.384Z,100365.50
2023-03-21T23:35:07.596Z,100352.41
2023-03-21T23:37:34.105Z,100361.97
2023-03-21T23:40:00.848Z,100353.28
2023-03-21T23:42:29.239Z,100353.31
2023-03-21T23:44:55.789Z,100352.41
2023-03-21T23:47:22.277Z,100350.75
2023-03-21T23:49:49.994Z,100352.50
2023-03-21T23:52:16.525Z,100353.41
2023-03-21T23:54:43.179Z,100350.78
2023-03-21T23:57:10.332Z,100346.44
2023-03-21T23:59:36.754Z,100353.34
